Latest Weather Observations for Narrabri

IDN60801

Issued at 6:05 pm EDT Friday 31 October 2014 (issued every 30 minutes, with the page automatically refreshed every 10 minutes)

About weather observations | Map of weather stations | Latest weather observations for NSW | Other Formats
Station Details ID: 054038 Name: NARRABRI AIRPORT AWS Lat: -30.32 Lon: 149.83 Height: 229.02 m
Data from the previous 72 hours. | See also: Recent months at Narrabri
Date/Time
EDT
Temp
°C
App
Temp
°C
Dew
Point
Rel
Hum
%
Delta-T
°C
Wind Press
QNH
hPa
Press
MSL
hPa
Rain
since 9 am
mm
Dir
 
Spd
km/h
Gust
km/h
Spd
kts
Gust
kts
31/06:00pm 35.4 31.4 6.6 17 16.0 NNE 17 24 9 13 1007.2 1006.4 0.0
31/05:30pm 35.1 30.1 6.4 17 15.9 N 22 28 12 15 1007.2 1006.4 0.0
31/05:00pm 36.5 31.0 5.7 15 17.0 N 24 32 13 17 1007.3 1006.5 0.0
31/04:30pm 36.2 31.0 5.5 15 16.8 N 22 33 12 18 1007.6 1006.8 0.0
31/04:00pm 37.0 32.1 7.0 16 16.9 NNW 22 35 12 19 1008.2 1007.4 0.0
31/03:30pm 35.2 30.0 7.3 18 15.6 N 24 35 13 19 1008.7 1007.9 0.0
31/03:24pm 35.7 29.7 6.9 17 16.1 NNW 28 46 15 25 1008.8 1008.0 0.0
31/03:00pm 35.8 30.5 7.0 17 16.1 NNW 24 43 13 23 1009.2 1008.4 0.0
31/02:30pm 35.8 30.3 6.1 16 16.4 N 24 41 13 22 1009.6 1008.9 0.0
31/02:00pm 36.3 31.9 9.0 19 15.8 NNE 22 32 12 17 1010.3 1009.6 0.0
31/01:30pm 35.5 30.8 9.1 20 15.2 NNW 24 37 13 20 1010.9 1010.2 0.0
31/01:00pm 34.7 29.0 9.9 22 14.4 N 30 44 16 24 1011.5 1010.8 0.0
31/12:30pm 36.1 30.5 8.8 19 15.7 N 28 33 15 18 1012.0 1011.2 0.0
31/12:00pm 34.2 29.1 10.7 24 13.8 N 28 39 15 21 1012.6 1011.8 0.0
31/11:37am 33.4 28.7 11.9 27 12.8 N 28 46 15 25 1013.0 1012.2 0.0
31/11:30am 33.3 29.8 13.4 30 12.1 N 24 35 13 19 1013.2 1012.4 0.0
31/11:00am 32.1 28.2 14.3 34 11.0 N 28 37 15 20 1013.8 1013.1 0.0
31/10:30am 31.3 28.8 14.0 35 10.6 N 20 33 11 18 1014.2 1013.5 0.0
31/10:00am 30.4 26.9 14.5 38 9.8 N 26 41 14 22 1014.5 1013.8 0.0
31/09:30am 29.3 25.9 14.7 41 8.9 N 26 33 14 18 1014.7 1014.0 0.0
31/09:00am 28.0 23.7 14.3 43 8.3 N 30 37 16 20 1014.8 1014.1 0.0
31/08:30am 27.4 23.8 14.1 44 8.0 N 26 39 14 21 1014.9 1014.2 0.0
31/08:00am 25.0 22.1 6.7 31 9.6 NE 11 13 6 7 1014.8 1014.1 0.0
31/07:30am 20.6 17.9 5.8 38 7.4 ENE 9 11 5 6 1014.8 1014.1 0.0
31/07:00am 15.8 14.6 4.8 48 5.2 CALM 0 0 0 0 1014.7 1014.0 0.0
31/06:30am 13.9 11.9 4.5 53 4.4 S 4 7 2 4 1014.4 1013.7 0.0
31/06:00am 13.4 11.7 4.0 53 4.3 S 2 9 1 5 1014.0 1013.3 0.0
31/05:30am 16.2 13.0 5.2 48 5.3 NE 11 20 6 11 1013.8 1013.1 0.0
31/05:00am 13.6 12.5 5.0 56 4.0 CALM 0 2 0 1 1013.1 1012.3 0.0
31/04:30am 13.6 11.1 3.9 52 4.5 S 6 9 3 5 1012.9 1012.1 0.0
31/04:00am 15.9 13.7 5.2 49 5.1 S 6 9 3 5 1012.8 1012.0 0.0
31/03:30am 14.5 13.3 4.5 51 4.7 CALM 0 0 0 0 1013.0 1012.2 0.0
31/03:00am 14.7 12.7 4.4 50 4.8 SW 4 7 2 4 1013.2 1012.4 0.0
31/02:30am 16.1 13.7 4.5 46 5.5 SSW 6 7 3 4 1013.1 1012.3 0.0
31/02:00am 18.0 16.8 4.6 41 6.5 CALM 0 4 0 2 1013.4 1012.7 0.0
31/01:30am 17.5 15.0 4.8 43 6.1 E 7 9 4 5 1013.6 1012.9 0.0
31/01:00am 17.0 15.7 4.0 42 6.2 CALM 0 0 0 0 1013.9 1013.2 0.0
31/12:30am 17.6 16.1 3.1 38 6.8 CALM 0 0 0 0 1013.8 1013.1 0.0
31/12:00am 22.0 17.6 4.6 32 8.6 E 17 20 9 11 1013.8 1013.1 0.0
 
Date/Time
EDT
Temp
°C
App
Temp
°C
Dew
Point
Rel
Hum
%
Delta-T
°C
Wind Press
QNH
hPa
Press
MSL
hPa
Rain
since 9 am
mm
Dir
 
Spd
km/h
Gust
km/h
Spd
kts
Gust
kts
30/11:30pm 19.5 18.3 4.8 38 7.2 CALM 0 6 0 3 1014.0 1013.3 0.0
30/11:00pm 20.4 17.9 3.6 33 8.1 SE 6 11 3 6 1014.1 1013.4 0.0
30/10:30pm 22.1 18.0 4.2 31 8.8 E 15 17 8 9 1013.9 1013.2 0.0
30/10:00pm 22.4 17.6 4.5 31 8.9 E 19 22 10 12 1013.7 1013.0 0.0
30/09:30pm 21.9 17.7 4.0 31 8.8 E 15 17 8 9 1013.5 1012.8 0.0
30/09:00pm 22.9 20.7 3.4 28 9.5 ESE 4 13 2 7 1013.3 1012.5 0.0
30/08:30pm 25.6 22.8 2.9 23 11.2 NE 7 9 4 5 1013.0 1012.2 0.0
30/08:00pm 26.5 23.9 3.1 22 11.6 NE 6 7 3 4 1012.8 1012.0 0.0
30/07:30pm 27.7 24.8 2.7 20 12.5 NE 7 9 4 5 1012.5 1011.7 0.0
30/07:00pm 30.2 27.6 3.3 18 13.8 N 6 7 3 4 1012.4 1011.6 0.0
30/06:30pm 29.9 27.3 3.0 18 13.7 NNW 6 9 3 5 1012.2 1011.4 0.0
30/06:00pm 32.3 29.4 2.4 15 15.3 SW 7 11 4 6 1012.1 1011.3 0.0
30/05:30pm 32.5 29.4 3.5 16 15.1 WSW 9 15 5 8 1012.1 1011.3 0.0
30/05:00pm 32.8 29.2 2.8 15 15.5 WSW 11 20 6 11 1012.3 1011.5 0.0
30/04:30pm 33.4 30.2 3.3 15 15.7 NE 9 20 5 11 1012.2 1011.4 0.0
30/04:00pm 31.9 28.5 3.8 17 14.6 SW 11 20 6 11 1012.7 1011.9 0.0
30/03:30pm 31.5 27.4 4.3 18 14.3 WSW 15 22 8 12 1013.0 1012.2 0.0
30/03:00pm 31.5 28.7 5.1 19 14.0 WSW 9 24 5 13 1013.2 1012.4 0.0
30/02:30pm 31.9 27.1 4.6 18 14.4 W 19 24 10 13 1013.7 1013.0 0.0
30/02:00pm 32.6 28.0 6.7 20 14.2 WNW 20 28 11 15 1014.0 1013.3 0.0
30/01:30pm 31.6 28.2 5.9 20 13.8 N 13 24 7 13 1014.4 1013.7 0.0
30/01:00pm 30.7 27.1 6.6 22 13.1 N 15 22 8 12 1014.8 1014.1 0.0
30/12:30pm 30.2 26.3 8.6 26 12.1 NNW 19 28 10 15 1015.5 1014.8 0.0
30/12:00pm 28.9 25.2 8.0 27 11.5 N 17 28 9 15 1016.1 1015.4 0.0
30/11:30am 28.7 25.1 9.9 31 10.6 N 19 28 10 15 1016.6 1015.8 0.0
30/11:00am 28.1 24.3 9.9 32 10.3 N 20 28 11 15 1017.2 1016.5 0.0
30/10:30am 26.4 22.4 10.5 37 9.0 N 22 30 12 16 1017.4 1016.7 0.0
30/10:00am 26.7 22.6 11.6 39 8.7 N 24 32 13 17 1017.6 1016.9 0.0
30/09:30am 25.4 20.2 10.4 39 8.4 N 28 37 15 20 1017.6 1016.9 0.0
30/09:00am 25.1 20.4 10.6 40 8.2 N 26 37 14 20 1017.4 1016.7 0.0
30/08:30am 24.5 19.6 10.0 40 8.1 N 26 35 14 19 1017.2 1016.5 0.0
30/08:00am 23.7 19.5 9.7 41 7.7 N 22 30 12 16 1017.1 1016.3 0.0
30/07:30am 21.1 19.1 8.7 45 6.6 N 9 11 5 6 1016.8 1016.0 0.0
30/07:00am 18.1 15.2 6.3 46 5.9 NE 11 13 6 7 1016.5 1015.7 0.0
30/06:30am 16.5 13.3 4.9 46 5.6 ENE 11 13 6 7 1016.0 1015.3 0.0
30/06:00am 14.4 11.3 3.8 49 4.9 ENE 9 11 5 6 1015.8 1015.1 0.0
30/05:30am 13.9 12.6 3.9 51 4.6 CALM 0 0 0 0 1015.5 1014.8 0.0
30/05:00am 13.4 11.7 3.8 52 4.4 SSE 2 6 1 3 1015.4 1014.7 0.0
30/04:30am 14.5 11.8 3.6 48 5.0 NNE 7 11 4 6 1015.3 1014.6 0.0
30/04:00am 13.2 10.5 3.6 52 4.4 E 7 9 4 5 1014.9 1014.2 0.0
30/03:30am 13.9 12.5 3.7 50 4.7 CALM 0 0 0 0 1014.8 1014.1 0.0
30/03:00am 14.7 13.0 3.8 48 5.0 E 2 6 1 3 1014.9 1014.2 0.0
30/02:30am 14.6 13.3 4.0 49 4.9 CALM 0 0 0 0 1014.7 1014.0 0.0
30/02:00am 14.3 11.8 3.5 48 4.9 ENE 6 9 3 5 1014.8 1014.1 0.0
30/01:30am 14.6 12.4 3.1 46 5.2 N 4 6 2 3 1014.8 1014.1 0.0
30/01:00am 17.1 15.7 3.8 41 6.3 CALM 0 0 0 0 1014.9 1014.2 0.0
30/12:30am 17.2 14.5 2.4 37 6.8 S 6 9 3 5 1015.1 1014.4 0.0
30/12:00am 19.9 16.0 3.6 34 7.8 E 13 15 7 8 1015.3 1014.6 0.0
 
Date/Time
EDT
Temp
°C
App
Temp
°C
Dew
Point
Rel
Hum
%
Delta-T
°C
Wind Press
QNH
hPa
Press
MSL
hPa
Rain
since 9 am
mm
Dir
 
Spd
km/h
Gust
km/h
Spd
kts
Gust
kts
29/11:30pm 19.2 16.1 3.8 36 7.4 E 9 11 5 6 1015.3 1014.6 0.0
29/11:00pm 18.4 15.6 3.1 36 7.2 E 7 9 4 5 1015.2 1014.5 0.0
29/10:30pm 18.3 15.9 2.2 34 7.4 SE 4 9 2 5 1015.0 1014.3 0.0
29/10:00pm 22.7 19.5 2.8 27 9.6 S 9 11 5 6 1014.9 1014.2 0.0
29/09:30pm 23.2 19.9 2.7 26 9.9 SSW 9 11 5 6 1014.8 1014.1 0.0
29/09:00pm 23.4 20.3 3.4 27 9.8 SW 9 13 5 7 1014.6 1013.9 0.0
29/08:30pm 22.3 18.8 1.3 25 9.8 S 9 17 5 9 1014.3 1013.6 0.0
29/08:00pm 26.3 22.7 2.9 22 11.6 E 11 11 6 6 1013.8 1013.1 0.0
29/07:30pm 27.4 24.1 2.5 20 12.3 ESE 9 11 5 6 1013.6 1012.9 0.0
29/07:00pm 29.6 26.2 2.0 17 13.8 ESE 9 11 5 6 1013.3 1012.5 0.0
29/06:30pm 30.7 27.3 2.0 16 14.4 SSE 9 13 5 7 1013.1 1012.3 0.0
29/06:00pm 31.7 28.8 2.8 16 14.8 W 7 13 4 7 1012.9 1012.1 0.0
29/05:30pm 31.1 28.0 1.4 15 14.8 E 7 17 4 9 1012.8 1012.0 0.0
29/05:00pm 31.2 28.1 1.5 15 14.8 NW 7 13 4 7 1012.9 1012.1 0.0
29/04:30pm 31.2 28.1 1.5 15 14.8 WNW 7 13 4 7 1013.2 1012.4 0.0
29/04:00pm 31.0 27.7 2.3 16 14.5 NNE 9 15 5 8 1013.6 1012.9 0.0
29/03:30pm 31.4 27.7 2.6 16 14.7 SW 11 17 6 9 1013.8 1013.1 0.0
29/03:00pm 30.4 27.1 2.6 17 14.1 S 9 20 5 11 1014.4 1013.7 0.0
29/02:30pm 29.8 25.3 2.1 17 13.8 SSE 15 26 8 14 1014.9 1014.2 0.0
29/02:00pm 29.6 24.5 2.8 18 13.5 S 19 26 10 14 1015.5 1014.8 0.0
29/01:30pm 28.9 25.2 2.2 18 13.3 ESE 11 26 6 14 1015.8 1015.1 0.0
29/01:00pm 28.7 23.4 2.8 19 13.0 SE 20 28 11 15 1016.4 1015.6 0.0
29/12:30pm 27.3 23.2 2.4 20 12.3 SSE 13 26 7 14 1016.8 1016.0 0.0
29/12:00pm 27.1 21.9 2.2 20 12.2 SSE 19 28 10 15 1017.2 1016.5 0.0
29/11:30am 26.9 21.5 2.7 21 12.0 SSE 20 33 11 18 1017.5 1016.8 0.0
29/11:00am 26.7 20.7 3.2 22 11.7 S 24 35 13 19 1017.8 1017.1 0.0
29/10:30am 24.9 19.1 2.4 23 10.9 SE 22 33 12 18 1017.9 1017.2 0.0
29/10:00am 24.2 18.9 1.8 23 10.7 SE 19 33 10 18 1018.0 1017.3 0.0
29/09:30am 24.2 18.2 1.2 22 10.9 SSE 22 35 12 19 1018.0 1017.3 0.0
29/09:00am 22.2 17.2 1.3 25 9.7 SSE 17 24 9 13 1018.0 1017.3 0.0
29/08:30am 20.3 15.3 1.2 28 8.8 SSE 17 30 9 16 1017.9 1017.2 0.0
29/08:00am 18.1 13.3 0.3 30 7.9 SSE 15 24 8 13 1017.7 1017.0 0.0
29/07:30am 16.9 11.3 0.1 32 7.3 SSE 19 24 10 13 1017.3 1016.6 0.0
29/07:00am 13.9 10.8 1.2 42 5.5 S 7 9 4 5 1017.2 1016.5 0.0
29/06:30am 10.4 6.4 0.4 50 4.1 S 11 13 6 7 1017.0 1016.2 0.0
29/06:00am 10.9 7.6 0.0 47 4.5 S 7 11 4 6 1016.9 1016.1 0.0
29/05:30am 13.4 9.7 0.1 40 5.6 SSE 9 13 5 7 1016.5 1015.7 0.0
29/05:00am 12.5 9.2 0.0 42 5.2 S 7 9 4 5 1016.1 1015.4 0.0
29/04:30am 13.3 9.9 -0.7 38 5.8 S 7 9 4 5 1015.8 1015.1 0.0
29/04:00am 17.2 13.1 -0.5 30 7.6 SE 11 19 6 10 1015.5 1014.8 0.0
29/03:30am 14.3 10.9 -0.9 35 6.3 S 7 13 4 7 1015.4 1014.7 0.0
29/03:00am 17.2 12.9 -1.4 28 7.9 SE 11 17 6 9 1015.3 1014.6 0.0
29/02:30am 17.7 13.1 -1.0 28 8.0 SE 13 19 7 10 1015.4 1014.7 0.0
29/02:00am 18.1 13.5 -1.2 27 8.3 SE 13 17 7 9 1015.3 1014.6 0.0
29/01:30am 18.1 13.5 -1.2 27 8.3 SE 13 17 7 9 1015.3 1014.6 0.0
29/01:00am 18.9 13.9 -1.5 25 8.8 SSE 15 19 8 10 1015.4 1014.7 0.0
29/12:30am 19.3 14.7 -1.2 25 8.9 SSE 13 20 7 11 1015.6 1014.9 0.0
29/12:00am 18.7 14.4 -1.7 25 8.7 SSE 11 15 6 8 1015.5 1014.8 0.0
 
Date/Time
EDT
Temp
°C
App
Temp
°C
Dew
Point
Rel
Hum
%
Delta-T
°C
Wind Press
QNH
hPa
Press
MSL
hPa
Rain
since 9 am
mm
Dir
 
Spd
km/h
Gust
km/h
Spd
kts
Gust
kts
28/11:30pm 19.4 15.4 -2.2 23 9.2 SSE 9 13 5 7 1015.4 1014.7 0.0
28/11:00pm 19.8 15.5 -1.9 23 9.3 S 11 19 6 10 1015.3 1014.6 0.0
28/10:30pm 19.7 15.0 -2.0 23 9.3 S 13 17 7 9 1015.1 1014.4 0.0
28/10:00pm 20.3 15.6 -2.1 22 9.6 S 13 17 7 9 1014.9 1014.2 0.0
28/09:30pm 21.2 16.4 -2.6 20 10.2 SSW 13 17 7 9 1014.7 1014.0 0.0
28/09:00pm 22.3 16.8 -2.4 19 10.7 SW 17 22 9 12 1014.6 1013.9 0.0
28/08:30pm 22.1 16.5 -3.3 18 10.8 SW 17 20 9 11 1014.2 1013.5 0.0
28/08:00pm 23.3 17.6 -3.9 16 11.6 SW 17 20 9 11 1013.9 1013.2 0.0
28/07:30pm 25.0 18.7 -4.3 14 12.6 SW 20 26 11 14 1013.5 1012.8 0.0
28/07:00pm 26.7 19.5 -5.0 12 13.6 SW 24 32 13 17 1013.0 1012.2 0.0
28/06:30pm 28.3 21.3 -3.8 12 14.3 SW 24 30 13 16 1012.7 1011.9 0.0

Other Formats:

Comma delimited format used in spreadsheet applications
http://www.bom.gov.au/fwo/IDN60801/IDN60801.95734.axf

JavaScript Object Notation format (JSON) in row-major order
http://www.bom.gov.au/fwo/IDN60801/IDN60801.95734.json